sensor_id;sensor_type;location;lat;lon;timestamp;P1;durP1;ratioP1;P2;durP2;ratioP2
29416;SDS011;28421;51.030;4.006;2022-12-07T06:03:44;13.10;;;5.85;;
29416;SDS011;28421;51.030;4.006;2022-12-07T06:06:10;13.23;;;5.90;;
29416;SDS011;28421;51.030;4.006;2022-12-07T06:08:36;10.23;;;4.95;;
29416;SDS011;28421;51.030;4.006;2022-12-07T06:11:01;9.10;;;4.93;;
29416;SDS011;28421;51.030;4.006;2022-12-07T06:13:45;7.67;;;5.73;;
29416;SDS011;28421;51.030;4.006;2022-12-07T06:16:10;13.25;;;6.40;;
29416;SDS011;28421;51.030;4.006;2022-12-07T06:18:36;11.80;;;6.88;;
29416;SDS011;28421;51.030;4.006;2022-12-07T06:21:01;8.70;;;5.72;;
29416;SDS011;28421;51.030;4.006;2022-12-07T06:23:27;12.25;;;7.32;;
29416;SDS011;28421;51.030;4.006;2022-12-07T06:25:52;14.57;;;5.40;;
29416;SDS011;28421;51.030;4.006;2022-12-07T06:28:17;5.30;;;3.92;;
29416;SDS011;28421;51.030;4.006;2022-12-07T06:30:43;10.05;;;5.45;;
29416;SDS011;28421;51.030;4.006;2022-12-07T06:33:08;12.77;;;5.20;;
29416;SDS011;28421;51.030;4.006;2022-12-07T06:35:33;7.93;;;6.03;;
29416;SDS011;28421;51.030;4.006;2022-12-07T06:37:59;14.10;;;6.18;;
29416;SDS011;28421;51.030;4.006;2022-12-07T06:40:24;9.02;;;5.30;;
29416;SDS011;28421;51.030;4.006;2022-12-07T06:42:50;8.77;;;4.97;;
29416;SDS011;28421;51.030;4.006;2022-12-07T06:45:15;5.38;;;4.70;;
29416;SDS011;28421;51.030;4.006;2022-12-07T06:47:41;5.18;;;4.47;;
29416;SDS011;28421;51.030;4.006;2022-12-07T06:50:06;16.02;;;5.85;;
29416;SDS011;28421;51.030;4.006;2022-12-07T06:52:33;7.90;;;4.57;;
29416;SDS011;28421;51.030;4.006;2022-12-07T06:54:58;7.63;;;4.55;;
29416;SDS011;28421;51.030;4.006;2022-12-07T06:57:24;14.27;;;5.50;;
29416;SDS011;28421;51.030;4.006;2022-12-07T06:59:50;10.95;;;5.47;;
29416;SDS011;28421;51.030;4.006;2022-12-07T07:02:15;11.95;;;5.35;;
29416;SDS011;28421;51.030;4.006;2022-12-07T07:04:41;9.55;;;6.07;;
29416;SDS011;28421;51.030;4.006;2022-12-07T07:07:07;9.27;;;4.43;;
29416;SDS011;28421;51.030;4.006;2022-12-07T07:09:32;12.13;;;5.13;;
29416;SDS011;28421;51.030;4.006;2022-12-07T07:11:58;7.55;;;4.70;;
29416;SDS011;28421;51.030;4.006;2022-12-07T07:14:23;5.63;;;4.15;;
29416;SDS011;28421;51.030;4.006;2022-12-07T07:16:48;8.98;;;5.88;;
29416;SDS011;28421;51.030;4.006;2022-12-07T07:19:14;18.73;;;5.32;;
29416;SDS011;28421;51.030;4.006;2022-12-07T07:21:39;13.10;;;5.15;;
29416;SDS011;28421;51.030;4.006;2022-12-07T07:24:05;9.38;;;4.88;;
29416;SDS011;28421;51.030;4.006;2022-12-07T07:26:30;10.40;;;6.00;;
29416;SDS011;28421;51.030;4.006;2022-12-07T07:28:56;15.15;;;5.65;;
29416;SDS011;28421;51.030;4.006;2022-12-07T07:31:21;10.65;;;5.05;;
29416;SDS011;28421;51.030;4.006;2022-12-07T07:33:47;11.65;;;6.30;;
29416;SDS011;28421;51.030;4.006;2022-12-07T07:36:12;11.82;;;7.38;;
29416;SDS011;28421;51.030;4.006;2022-12-07T07:38:38;12.65;;;6.03;;
29416;SDS011;28421;51.030;4.006;2022-12-07T07:41:03;11.13;;;5.68;;
29416;SDS011;28421;51.030;4.006;2022-12-07T07:43:28;8.27;;;5.28;;
29416;SDS011;28421;51.030;4.006;2022-12-07T07:45:54;6.85;;;5.47;;
29416;SDS011;28421;51.030;4.006;2022-12-07T07:48:19;10.93;;;6.32;;
29416;SDS011;28421;51.030;4.006;2022-12-07T07:50:45;9.70;;;5.38;;
29416;SDS011;28421;51.030;4.006;2022-12-07T07:53:10;9.90;;;5.03;;
29416;SDS011;28421;51.030;4.006;2022-12-07T07:55:36;15.05;;;4.85;;
29416;SDS011;28421;51.030;4.006;2022-12-07T07:58:01;11.75;;;4.57;;
29416;SDS011;28421;51.030;4.006;2022-12-07T08:00:27;10.52;;;5.55;;
29416;SDS011;28421;51.030;4.006;2022-12-07T08:02:52;8.25;;;4.72;;
29416;SDS011;28421;51.030;4.006;2022-12-07T08:05:17;10.02;;;5.75;;
29416;SDS011;28421;51.030;4.006;2022-12-07T08:07:43;8.23;;;5.45;;
29416;SDS011;28421;51.030;4.006;2022-12-07T08:10:09;9.90;;;5.25;;
29416;SDS011;28421;51.030;4.006;2022-12-07T08:12:37;7.25;;;5.40;;
29416;SDS011;28421;51.030;4.006;2022-12-07T08:15:24;9.23;;;5.20;;
29416;SDS011;28421;51.030;4.006;2022-12-07T08:17:50;10.05;;;5.05;;
29416;SDS011;28421;51.030;4.006;2022-12-07T08:20:15;15.82;;;5.53;;
29416;SDS011;28421;51.030;4.006;2022-12-07T08:22:41;14.35;;;5.65;;
29416;SDS011;28421;51.030;4.006;2022-12-07T08:25:06;10.55;;;4.82;;
29416;SDS011;28421;51.030;4.006;2022-12-07T08:27:32;10.13;;;5.60;;
29416;SDS011;28421;51.030;4.006;2022-12-07T08:29:57;10.63;;;5.50;;
29416;SDS011;28421;51.030;4.006;2022-12-07T08:32:23;7.75;;;5.85;;
29416;SDS011;28421;51.030;4.006;2022-12-07T08:34:48;10.40;;;6.68;;
29416;SDS011;28421;51.030;4.006;2022-12-07T08:37:14;12.23;;;6.60;;
29416;SDS011;28421;51.030;4.006;2022-12-07T08:39:39;11.07;;;6.30;;
29416;SDS011;28421;51.030;4.006;2022-12-07T08:42:04;18.92;;;6.57;;
29416;SDS011;28421;51.030;4.006;2022-12-07T08:44:30;11.80;;;5.90;;
29416;SDS011;28421;51.030;4.006;2022-12-07T08:46:58;15.60;;;7.30;;
29416;SDS011;28421;51.030;4.006;2022-12-07T08:49:31;13.40;;;7.43;;
29416;SDS011;28421;51.030;4.006;2022-12-07T08:51:59;10.80;;;6.65;;
29416;SDS011;28421;51.030;4.006;2022-12-07T08:54:25;16.23;;;6.95;;
29416;SDS011;28421;51.030;4.006;2022-12-07T08:56:50;14.30;;;7.15;;
29416;SDS011;28421;51.030;4.006;2022-12-07T08:59:17;8.27;;;6.28;;
29416;SDS011;28421;51.030;4.006;2022-12-07T09:01:43;10.52;;;6.10;;
29416;SDS011;28421;51.030;4.006;2022-12-07T09:04:09;10.25;;;6.35;;
29416;SDS011;28421;51.030;4.006;2022-12-07T09:06:34;13.80;;;6.28;;
29416;SDS011;28421;51.030;4.006;2022-12-07T09:09:00;12.95;;;5.80;;
29416;SDS011;28421;51.030;4.006;2022-12-07T09:11:26;20.27;;;7.10;;
29416;SDS011;28421;51.030;4.006;2022-12-07T09:13:52;11.85;;;6.90;;
29416;SDS011;28421;51.030;4.006;2022-12-07T09:16:17;19.15;;;7.20;;
29416;SDS011;28421;51.030;4.006;2022-12-07T09:18:43;18.65;;;6.60;;
29416;SDS011;28421;51.030;4.006;2022-12-07T09:21:08;17.30;;;6.85;;
29416;SDS011;28421;51.030;4.006;2022-12-07T09:23:34;17.52;;;6.25;;
29416;SDS011;28421;51.030;4.006;2022-12-07T09:26:00;12.02;;;7.20;;
29416;SDS011;28421;51.030;4.006;2022-12-07T09:28:26;12.30;;;5.82;;
29416;SDS011;28421;51.030;4.006;2022-12-07T09:30:52;11.25;;;5.90;;
29416;SDS011;28421;51.030;4.006;2022-12-07T09:33:17;11.40;;;5.82;;
29416;SDS011;28421;51.030;4.006;2022-12-07T09:35:44;11.65;;;6.35;;
29416;SDS011;28421;51.030;4.006;2022-12-07T09:38:13;13.23;;;7.13;;
29416;SDS011;28421;51.030;4.006;2022-12-07T09:40:39;8.65;;;5.47;;
29416;SDS011;28421;51.030;4.006;2022-12-07T09:43:11;10.70;;;5.63;;
29416;SDS011;28421;51.030;4.006;2022-12-07T09:45:38;13.25;;;5.75;;
29416;SDS011;28421;51.030;4.006;2022-12-07T09:48:04;9.75;;;5.05;;
29416;SDS011;28421;51.030;4.006;2022-12-07T09:50:30;13.55;;;5.47;;
29416;SDS011;28421;51.030;4.006;2022-12-07T09:53:02;7.03;;;4.75;;
29416;SDS011;28421;51.030;4.006;2022-12-07T09:55:33;8.75;;;5.45;;
29416;SDS011;28421;51.030;4.006;2022-12-07T09:58:01;11.82;;;6.65;;
29416;SDS011;28421;51.030;4.006;2022-12-07T10:00:26;8.57;;;5.25;;
29416;SDS011;28421;51.030;4.006;2022-12-07T10:02:57;11.15;;;5.82;;
29416;SDS011;28421;51.030;4.006;2022-12-07T10:05:26;16.73;;;5.75;;
29416;SDS011;28421;51.030;4.006;2022-12-07T10:07:54;15.25;;;5.10;;
29416;SDS011;28421;51.030;4.006;2022-12-07T10:10:23;8.60;;;5.85;;
29416;SDS011;28421;51.030;4.006;2022-12-07T10:15:40;11.05;;;6.20;;
29416;SDS011;28421;51.030;4.006;2022-12-07T10:23:39;14.07;;;5.72;;
29416;SDS011;28421;51.030;4.006;2022-12-07T10:26:18;8.13;;;5.63;;
29416;SDS011;28421;51.030;4.006;2022-12-07T10:31:58;15.30;;;5.80;;
29416;SDS011;28421;51.030;4.006;2022-12-07T10:34:27;24.42;;;6.05;;
29416;SDS011;28421;51.030;4.006;2022-12-07T10:37:14;9.50;;;5.47;;
29416;SDS011;28421;51.030;4.006;2022-12-07T10:39:47;8.90;;;5.18;;
29416;SDS011;28421;51.030;4.006;2022-12-07T10:42:22;18.17;;;5.00;;
29416;SDS011;28421;51.030;4.006;2022-12-07T10:44:48;9.75;;;5.30;;
29416;SDS011;28421;51.030;4.006;2022-12-07T10:52:49;11.77;;;4.75;;
29416;SDS011;28421;51.030;4.006;2022-12-07T11:03:43;5.45;;;3.65;;
29416;SDS011;28421;51.030;4.006;2022-12-07T11:20:27;7.47;;;3.38;;
29416;SDS011;28421;51.030;4.006;2022-12-07T11:23:11;5.82;;;2.97;;
29416;SDS011;28421;51.030;4.006;2022-12-07T11:29:15;10.52;;;2.80;;
29416;SDS011;28421;51.030;4.006;2022-12-07T11:34:36;6.85;;;2.70;;
29416;SDS011;28421;51.030;4.006;2022-12-07T11:37:27;8.40;;;3.10;;
29416;SDS011;28421;51.030;4.006;2022-12-07T11:40:31;7.55;;;3.55;;
29416;SDS011;28421;51.030;4.006;2022-12-07T11:42:57;16.02;;;4.15;;
29416;SDS011;28421;51.030;4.006;2022-12-07T11:45:27;8.32;;;3.63;;
29416;SDS011;28421;51.030;4.006;2022-12-07T11:50:38;10.20;;;3.60;;
29416;SDS011;28421;51.030;4.006;2022-12-07T11:58:32;8.15;;;3.28;;
29416;SDS011;28421;51.030;4.006;2022-12-07T12:01:14;12.18;;;3.78;;
29416;SDS011;28421;51.030;4.006;2022-12-07T12:03:54;7.00;;;3.38;;
29416;SDS011;28421;51.030;4.006;2022-12-07T12:06:26;9.77;;;3.65;;
29416;SDS011;28421;51.030;4.006;2022-12-07T12:11:31;8.93;;;2.87;;
29416;SDS011;28421;51.030;4.006;2022-12-07T12:14:17;13.68;;;2.92;;
29416;SDS011;28421;51.030;4.006;2022-12-07T12:22:17;8.75;;;2.72;;
29416;SDS011;28421;51.030;4.006;2022-12-07T12:24:50;6.32;;;2.70;;
29416;SDS011;28421;51.030;4.006;2022-12-07T12:27:28;6.95;;;3.35;;
29416;SDS011;28421;51.030;4.006;2022-12-07T12:29:58;6.70;;;2.50;;
29416;SDS011;28421;51.030;4.006;2022-12-07T12:32:36;5.88;;;2.33;;
29416;SDS011;28421;51.030;4.006;2022-12-07T12:37:48;4.68;;;2.03;;
29416;SDS011;28421;51.030;4.006;2022-12-07T12:42:51;2.65;;;1.52;;
29416;SDS011;28421;51.030;4.006;2022-12-07T12:45:29;1.42;;;1.33;;
29416;SDS011;28421;51.030;4.006;2022-12-07T12:47:57;5.80;;;1.58;;
29416;SDS011;28421;51.030;4.006;2022-12-07T12:52:50;4.75;;;1.80;;
29416;SDS011;28421;51.030;4.006;2022-12-07T12:55:20;1.95;;;1.45;;
29416;SDS011;28421;51.030;4.006;2022-12-07T12:58:36;4.35;;;1.77;;
29416;SDS011;28421;51.030;4.006;2022-12-07T13:00:42;4.22;;;1.55;;
29416;SDS011;28421;51.030;4.006;2022-12-07T13:03:16;3.05;;;1.60;;
29416;SDS011;28421;51.030;4.006;2022-12-07T13:05:48;4.82;;;1.80;;
29416;SDS011;28421;51.030;4.006;2022-12-07T13:08:49;11.18;;;2.20;;
29416;SDS011;28421;51.030;4.006;2022-12-07T13:11:18;5.05;;;3.28;;
29416;SDS011;28421;51.030;4.006;2022-12-07T13:13:52;2.78;;;1.35;;
29416;SDS011;28421;51.030;4.006;2022-12-07T13:18:42;4.25;;;2.20;;
29416;SDS011;28421;51.030;4.006;2022-12-07T13:23:37;6.57;;;2.05;;
29416;SDS011;28421;51.030;4.006;2022-12-07T13:28:44;6.57;;;2.47;;
29416;SDS011;28421;51.030;4.006;2022-12-07T13:36:21;6.13;;;2.35;;
29416;SDS011;28421;51.030;4.006;2022-12-07T13:38:50;6.05;;;2.53;;
29416;SDS011;28421;51.030;4.006;2022-12-07T13:41:18;3.28;;;1.90;;
29416;SDS011;28421;51.030;4.006;2022-12-07T13:43:50;3.35;;;2.30;;
29416;SDS011;28421;51.030;4.006;2022-12-07T13:46:33;6.35;;;2.50;;
29416;SDS011;28421;51.030;4.006;2022-12-07T13:49:19;5.20;;;2.63;;
29416;SDS011;28421;51.030;4.006;2022-12-07T13:51:47;4.30;;;3.03;;
29416;SDS011;28421;51.030;4.006;2022-12-07T13:54:13;3.72;;;2.63;;
29416;SDS011;28421;51.030;4.006;2022-12-07T13:56:39;8.93;;;2.95;;
29416;SDS011;28421;51.030;4.006;2022-12-07T13:59:09;5.45;;;2.28;;
29416;SDS011;28421;51.030;4.006;2022-12-07T14:01:39;9.30;;;2.40;;
29416;SDS011;28421;51.030;4.006;2022-12-07T14:04:18;4.78;;;3.30;;
29416;SDS011;28421;51.030;4.006;2022-12-07T14:06:54;2.15;;;1.95;;
29416;SDS011;28421;51.030;4.006;2022-12-07T14:09:21;4.40;;;3.08;;
29416;SDS011;28421;51.030;4.006;2022-12-07T14:11:48;5.25;;;2.58;;
29416;SDS011;28421;51.030;4.006;2022-12-07T14:14:23;6.68;;;3.63;;
29416;SDS011;28421;51.030;4.006;2022-12-07T14:17:12;4.25;;;2.78;;
29416;SDS011;28421;51.030;4.006;2022-12-07T14:19:55;6.55;;;2.70;;
29416;SDS011;28421;51.030;4.006;2022-12-07T14:27:30;6.18;;;2.97;;
29416;SDS011;28421;51.030;4.006;2022-12-07T14:29:59;3.80;;;2.67;;
29416;SDS011;28421;51.030;4.006;2022-12-07T14:32:27;4.90;;;3.78;;
29416;SDS011;28421;51.030;4.006;2022-12-07T14:37:26;6.78;;;3.70;;
29416;SDS011;28421;51.030;4.006;2022-12-07T14:39:52;6.38;;;3.55;;
29416;SDS011;28421;51.030;4.006;2022-12-07T14:42:17;8.93;;;4.25;;
29416;SDS011;28421;51.030;4.006;2022-12-07T14:44:43;7.07;;;3.33;;
29416;SDS011;28421;51.030;4.006;2022-12-07T14:47:10;8.60;;;3.60;;
29416;SDS011;28421;51.030;4.006;2022-12-07T14:49:35;6.10;;;2.63;;
29416;SDS011;28421;51.030;4.006;2022-12-07T14:52:01;3.08;;;2.15;;
29416;SDS011;28421;51.030;4.006;2022-12-07T14:54:27;2.33;;;1.67;;
29416;SDS011;28421;51.030;4.006;2022-12-07T14:56:57;8.43;;;3.83;;
29416;SDS011;28421;51.030;4.006;2022-12-07T14:59:22;3.95;;;2.53;;
29416;SDS011;28421;51.030;4.006;2022-12-07T15:01:48;9.38;;;2.38;;
29416;SDS011;28421;51.030;4.006;2022-12-07T15:04:14;4.75;;;2.35;;
29416;SDS011;28421;51.030;4.006;2022-12-07T15:06:39;9.30;;;2.70;;
29416;SDS011;28421;51.030;4.006;2022-12-07T15:09:05;6.18;;;2.53;;
29416;SDS011;28421;51.030;4.006;2022-12-07T15:11:30;5.43;;;2.17;;
29416;SDS011;28421;51.030;4.006;2022-12-07T15:13:56;3.65;;;2.00;;
29416;SDS011;28421;51.030;4.006;2022-12-07T15:16:34;5.00;;;2.17;;
29416;SDS011;28421;51.030;4.006;2022-12-07T15:19:00;2.53;;;2.05;;
29416;SDS011;28421;51.030;4.006;2022-12-07T15:21:26;2.75;;;1.95;;
29416;SDS011;28421;51.030;4.006;2022-12-07T15:23:51;5.80;;;2.47;;
29416;SDS011;28421;51.030;4.006;2022-12-07T15:26:17;6.70;;;2.42;;
29416;SDS011;28421;51.030;4.006;2022-12-07T15:28:42;3.63;;;2.22;;
29416;SDS011;28421;51.030;4.006;2022-12-07T15:31:11;5.00;;;2.80;;
29416;SDS011;28421;51.030;4.006;2022-12-07T15:33:40;6.15;;;2.42;;
29416;SDS011;28421;51.030;4.006;2022-12-07T15:36:06;12.90;;;3.05;;
29416;SDS011;28421;51.030;4.006;2022-12-07T15:38:32;7.90;;;3.72;;
29416;SDS011;28421;51.030;4.006;2022-12-07T15:40:58;12.27;;;5.30;;
29416;SDS011;28421;51.030;4.006;2022-12-07T15:43:23;13.35;;;5.57;;
29416;SDS011;28421;51.030;4.006;2022-12-07T15:46:07;15.15;;;6.22;;
29416;SDS011;28421;51.030;4.006;2022-12-07T15:48:33;13.52;;;5.82;;
29416;SDS011;28421;51.030;4.006;2022-12-07T15:51:05;11.70;;;5.53;;
29416;SDS011;28421;51.030;4.006;2022-12-07T15:53:31;15.95;;;4.70;;
29416;SDS011;28421;51.030;4.006;2022-12-07T15:55:58;8.45;;;4.68;;
29416;SDS011;28421;51.030;4.006;2022-12-07T15:58:24;19.25;;;5.65;;
29416;SDS011;28421;51.030;4.006;2022-12-07T16:00:49;9.35;;;4.30;;
29416;SDS011;28421;51.030;4.006;2022-12-07T16:03:14;18.60;;;5.95;;
29416;SDS011;28421;51.030;4.006;2022-12-07T16:05:40;12.13;;;6.75;;
29416;SDS011;28421;51.030;4.006;2022-12-07T16:08:05;12.35;;;6.40;;
29416;SDS011;28421;51.030;4.006;2022-12-07T16:10:31;14.20;;;5.45;;
29416;SDS011;28421;51.030;4.006;2022-12-07T16:12:56;15.25;;;6.03;;
29416;SDS011;28421;51.030;4.006;2022-12-07T16:15:22;15.45;;;5.78;;
29416;SDS011;28421;51.030;4.006;2022-12-07T16:17:49;13.60;;;5.22;;
29416;SDS011;28421;51.030;4.006;2022-12-07T16:20:15;12.95;;;5.60;;
29416;SDS011;28421;51.030;4.006;2022-12-07T16:22:41;11.93;;;5.80;;
29416;SDS011;28421;51.030;4.006;2022-12-07T16:25:06;10.38;;;5.72;;
29416;SDS011;28421;51.030;4.006;2022-12-07T16:27:32;8.65;;;4.47;;
29416;SDS011;28421;51.030;4.006;2022-12-07T16:29:57;14.18;;;6.57;;
29416;SDS011;28421;51.030;4.006;2022-12-07T16:32:22;14.57;;;5.93;;
29416;SDS011;28421;51.030;4.006;2022-12-07T16:34:48;11.98;;;6.22;;
29416;SDS011;28421;51.030;4.006;2022-12-07T16:37:13;8.32;;;5.85;;
29416;SDS011;28421;51.030;4.006;2022-12-07T16:39:39;12.60;;;5.80;;
29416;SDS011;28421;51.030;4.006;2022-12-07T16:42:04;15.00;;;6.20;;
29416;SDS011;28421;51.030;4.006;2022-12-07T16:44:29;9.20;;;5.00;;
29416;SDS011;28421;51.030;4.006;2022-12-07T16:46:56;19.40;;;6.38;;
29416;SDS011;28421;51.030;4.006;2022-12-07T16:49:21;10.45;;;5.03;;
29416;SDS011;28421;51.030;4.006;2022-12-07T16:51:49;13.93;;;5.38;;
29416;SDS011;28421;51.030;4.006;2022-12-07T16:54:15;6.90;;;4.15;;
29416;SDS011;28421;51.030;4.006;2022-12-07T16:56:40;7.07;;;5.13;;
29416;SDS011;28421;51.030;4.006;2022-12-07T16:59:06;5.82;;;4.93;;
29416;SDS011;28421;51.030;4.006;2022-12-07T17:01:32;16.13;;;5.78;;
29416;SDS011;28421;51.030;4.006;2022-12-07T17:03:59;9.82;;;5.20;;
29416;SDS011;28421;51.030;4.006;2022-12-07T17:06:25;8.50;;;4.68;;
29416;SDS011;28421;51.030;4.006;2022-12-07T17:08:52;6.70;;;4.65;;
29416;SDS011;28421;51.030;4.006;2022-12-07T17:11:20;8.25;;;3.78;;
29416;SDS011;28421;51.030;4.006;2022-12-07T17:13:47;7.32;;;4.97;;
29416;SDS011;28421;51.030;4.006;2022-12-07T17:16:31;5.85;;;4.00;;
29416;SDS011;28421;51.030;4.006;2022-12-07T17:18:57;9.32;;;5.25;;
29416;SDS011;28421;51.030;4.006;2022-12-07T17:21:23;13.90;;;4.70;;
29416;SDS011;28421;51.030;4.006;2022-12-07T17:23:49;11.30;;;5.28;;
29416;SDS011;28421;51.030;4.006;2022-12-07T17:26:19;14.27;;;5.72;;
29416;SDS011;28421;51.030;4.006;2022-12-07T17:28:47;9.20;;;6.00;;
29416;SDS011;28421;51.030;4.006;2022-12-07T17:31:13;5.47;;;4.72;;
29416;SDS011;28421;51.030;4.006;2022-12-07T17:33:40;13.15;;;6.82;;
29416;SDS011;28421;51.030;4.006;2022-12-07T17:36:16;11.32;;;7.15;;
29416;SDS011;28421;51.030;4.006;2022-12-07T17:38:43;8.80;;;6.55;;
29416;SDS011;28421;51.030;4.006;2022-12-07T17:41:13;12.18;;;7.70;;
29416;SDS011;28421;51.030;4.006;2022-12-07T17:43:59;9.98;;;7.60;;
29416;SDS011;28421;51.030;4.006;2022-12-07T17:46:25;20.20;;;9.30;;
29416;SDS011;28421;51.030;4.006;2022-12-07T17:48:53;14.82;;;9.88;;
29416;SDS011;28421;51.030;4.006;2022-12-07T17:51:19;19.15;;;9.70;;
29416;SDS011;28421;51.030;4.006;2022-12-07T17:54:03;15.88;;;9.23;;
29416;SDS011;28421;51.030;4.006;2022-12-07T17:56:28;15.75;;;8.93;;
29416;SDS011;28421;51.030;4.006;2022-12-07T17:58:53;19.65;;;10.25;;
29416;SDS011;28421;51.030;4.006;2022-12-07T18:01:19;15.57;;;9.75;;
29416;SDS011;28421;51.030;4.006;2022-12-07T18:03:44;15.90;;;9.93;;
29416;SDS011;28421;51.030;4.006;2022-12-07T18:06:10;15.10;;;8.80;;
29416;SDS011;28421;51.030;4.006;2022-12-07T18:08:35;15.55;;;9.90;;
29416;SDS011;28421;51.030;4.006;2022-12-07T18:11:03;17.90;;;10.20;;
29416;SDS011;28421;51.030;4.006;2022-12-07T18:13:30;24.48;;;12.73;;
29416;SDS011;28421;51.030;4.006;2022-12-07T18:16:03;18.75;;;11.45;;
29416;SDS011;28421;51.030;4.006;2022-12-07T18:18:33;14.13;;;8.85;;
29416;SDS011;28421;51.030;4.006;2022-12-07T18:26:22;13.98;;;9.40;;
29416;SDS011;28421;51.030;4.006;2022-12-07T18:28:50;13.13;;;8.05;;
29416;SDS011;28421;51.030;4.006;2022-12-07T18:31:15;15.18;;;8.02;;
29416;SDS011;28421;51.030;4.006;2022-12-07T18:33:41;22.20;;;10.52;;
29416;SDS011;28421;51.030;4.006;2022-12-07T18:36:08;18.50;;;8.82;;
29416;SDS011;28421;51.030;4.006;2022-12-07T18:38:35;15.13;;;8.10;;
29416;SDS011;28421;51.030;4.006;2022-12-07T18:41:01;13.55;;;7.93;;
29416;SDS011;28421;51.030;4.006;2022-12-07T18:43:27;15.13;;;8.07;;
29416;SDS011;28421;51.030;4.006;2022-12-07T18:45:52;16.48;;;8.30;;
29416;SDS011;28421;51.030;4.006;2022-12-07T18:48:19;17.08;;;7.80;;
29416;SDS011;28421;51.030;4.006;2022-12-07T18:50:46;11.57;;;8.30;;
29416;SDS011;28421;51.030;4.006;2022-12-07T18:53:12;14.25;;;7.45;;
29416;SDS011;28421;51.030;4.006;2022-12-07T18:55:38;7.38;;;6.13;;
29416;SDS011;28421;51.030;4.006;2022-12-07T18:58:04;12.85;;;7.15;;
29416;SDS011;28421;51.030;4.006;2022-12-07T19:00:31;15.55;;;8.20;;
29416;SDS011;28421;51.030;4.006;2022-12-07T19:02:58;16.17;;;9.52;;
29416;SDS011;28421;51.030;4.006;2022-12-07T19:05:24;20.65;;;9.95;;
29416;SDS011;28421;51.030;4.006;2022-12-07T19:07:50;15.77;;;8.20;;
29416;SDS011;28421;51.030;4.006;2022-12-07T19:10:16;13.82;;;9.60;;
29416;SDS011;28421;51.030;4.006;2022-12-07T19:12:44;18.10;;;10.20;;
29416;SDS011;28421;51.030;4.006;2022-12-07T19:15:10;16.65;;;10.55;;
29416;SDS011;28421;51.030;4.006;2022-12-07T19:17:37;16.80;;;10.05;;
29416;SDS011;28421;51.030;4.006;2022-12-07T19:20:04;22.15;;;10.90;;
29416;SDS011;28421;51.030;4.006;2022-12-07T19:22:31;15.77;;;9.82;;
29416;SDS011;28421;51.030;4.006;2022-12-07T19:24:56;20.75;;;10.05;;
29416;SDS011;28421;51.030;4.006;2022-12-07T19:27:22;16.58;;;11.43;;
29416;SDS011;28421;51.030;4.006;2022-12-07T19:29:48;16.05;;;10.27;;
29416;SDS011;28421;51.030;4.006;2022-12-07T19:32:15;17.67;;;9.77;;
29416;SDS011;28421;51.030;4.006;2022-12-07T19:34:42;12.60;;;9.20;;
29416;SDS011;28421;51.030;4.006;2022-12-07T19:37:09;12.93;;;9.02;;
29416;SDS011;28421;51.030;4.006;2022-12-07T19:39:36;15.75;;;9.73;;
29416;SDS011;28421;51.030;4.006;2022-12-07T19:42:02;20.05;;;12.20;;
29416;SDS011;28421;51.030;4.006;2022-12-07T19:44:28;15.18;;;9.73;;
29416;SDS011;28421;51.030;4.006;2022-12-07T19:46:58;13.02;;;8.85;;
29416;SDS011;28421;51.030;4.006;2022-12-07T19:49:25;12.38;;;8.90;;
29416;SDS011;28421;51.030;4.006;2022-12-07T19:51:53;12.60;;;7.70;;
29416;SDS011;28421;51.030;4.006;2022-12-07T19:54:22;15.18;;;8.10;;
29416;SDS011;28421;51.030;4.006;2022-12-07T19:56:50;13.55;;;8.20;;
29416;SDS011;28421;51.030;4.006;2022-12-07T19:59:17;15.00;;;7.22;;
29416;SDS011;28421;51.030;4.006;2022-12-07T20:01:45;15.30;;;8.93;;
29416;SDS011;28421;51.030;4.006;2022-12-07T20:04:15;16.60;;;8.30;;
29416;SDS011;28421;51.030;4.006;2022-12-07T20:06:44;12.20;;;8.20;;
29416;SDS011;28421;51.030;4.006;2022-12-07T20:09:10;11.70;;;7.40;;
29416;SDS011;28421;51.030;4.006;2022-12-07T20:11:36;17.13;;;9.15;;
29416;SDS011;28421;51.030;4.006;2022-12-07T20:14:20;14.00;;;8.10;;
29416;SDS011;28421;51.030;4.006;2022-12-07T20:16:46;14.63;;;7.53;;
29416;SDS011;28421;51.030;4.006;2022-12-07T20:19:12;11.80;;;6.93;;
29416;SDS011;28421;51.030;4.006;2022-12-07T20:21:40;12.00;;;7.25;;
29416;SDS011;28421;51.030;4.006;2022-12-07T20:24:06;7.53;;;6.05;;
29416;SDS011;28421;51.030;4.006;2022-12-07T20:26:35;14.32;;;6.97;;
29416;SDS011;28421;51.030;4.006;2022-12-07T20:29:05;13.25;;;6.82;;
29416;SDS011;28421;51.030;4.006;2022-12-07T20:31:35;9.43;;;6.65;;
29416;SDS011;28421;51.030;4.006;2022-12-07T20:34:00;13.00;;;7.93;;
29416;SDS011;28421;51.030;4.006;2022-12-07T20:36:26;11.75;;;6.53;;
29416;SDS011;28421;51.030;4.006;2022-12-07T20:38:52;10.20;;;5.95;;
29416;SDS011;28421;51.030;4.006;2022-12-07T20:41:18;18.48;;;10.70;;
29416;SDS011;28421;51.030;4.006;2022-12-07T20:44:03;15.32;;;10.77;;
29416;SDS011;28421;51.030;4.006;2022-12-07T20:46:29;11.75;;;6.68;;
29416;SDS011;28421;51.030;4.006;2022-12-07T20:48:58;9.68;;;5.32;;
29416;SDS011;28421;51.030;4.006;2022-12-07T20:51:25;8.52;;;5.20;;
29416;SDS011;28421;51.030;4.006;2022-12-07T20:53:52;10.18;;;5.80;;
29416;SDS011;28421;51.030;4.006;2022-12-07T20:56:18;10.20;;;5.57;;
29416;SDS011;28421;51.030;4.006;2022-12-07T20:58:43;7.35;;;5.28;;
29416;SDS011;28421;51.030;4.006;2022-12-07T21:01:09;8.63;;;4.85;;
29416;SDS011;28421;51.030;4.006;2022-12-07T21:03:34;14.15;;;5.22;;
29416;SDS011;28421;51.030;4.006;2022-12-07T21:06:00;8.57;;;5.25;;
29416;SDS011;28421;51.030;4.006;2022-12-07T21:08:26;14.57;;;5.00;;
29416;SDS011;28421;51.030;4.006;2022-12-07T21:10:52;7.95;;;4.57;;
29416;SDS011;28421;51.030;4.006;2022-12-07T21:13:17;4.47;;;4.07;;
29416;SDS011;28421;51.030;4.006;2022-12-07T21:15:42;9.13;;;3.92;;
29416;SDS011;28421;51.030;4.006;2022-12-07T21:18:08;5.53;;;3.90;;
29416;SDS011;28421;51.030;4.006;2022-12-07T21:20:33;5.75;;;3.83;;
29416;SDS011;28421;51.030;4.006;2022-12-07T21:22:59;4.90;;;3.40;;
29416;SDS011;28421;51.030;4.006;2022-12-07T21:25:24;3.35;;;3.05;;
29416;SDS011;28421;51.030;4.006;2022-12-07T21:27:49;7.10;;;4.22;;
29416;SDS011;28421;51.030;4.006;2022-12-07T21:30:15;7.82;;;5.40;;
29416;SDS011;28421;51.030;4.006;2022-12-07T21:32:40;6.90;;;4.35;;
29416;SDS011;28421;51.030;4.006;2022-12-07T21:35:05;7.90;;;4.93;;
29416;SDS011;28421;51.030;4.006;2022-12-07T21:37:31;6.63;;;5.85;;
29416;SDS011;28421;51.030;4.006;2022-12-07T21:39:56;9.27;;;6.32;;
29416;SDS011;28421;51.030;4.006;2022-12-07T21:42:22;10.05;;;5.80;;
29416;SDS011;28421;51.030;4.006;2022-12-07T21:44:47;8.23;;;6.43;;
29416;SDS011;28421;51.030;4.006;2022-12-07T21:47:13;10.32;;;6.35;;
29416;SDS011;28421;51.030;4.006;2022-12-07T21:49:38;9.00;;;6.32;;
29416;SDS011;28421;51.030;4.006;2022-12-07T21:52:03;8.05;;;5.60;;
29416;SDS011;28421;51.030;4.006;2022-12-07T21:54:29;13.52;;;6.95;;
29416;SDS011;28421;51.030;4.006;2022-12-07T21:56:55;11.65;;;6.20;;
29416;SDS011;28421;51.030;4.006;2022-12-07T21:59:20;13.35;;;6.72;;
